createdAt,value
2023-01-03T00:02:10.104Z,101151.75
2023-01-03T00:04:55.956Z,101149.44
2023-01-03T00:07:41.120Z,101142.50
2023-01-03T00:10:26.485Z,101133.72
2023-01-03T00:13:11.824Z,101134.09
2023-01-03T00:15:57.250Z,101118.97
2023-01-03T00:18:42.892Z,101108.75
2023-01-03T00:21:28.249Z,101108.00
2023-01-03T00:24:13.694Z,101090.38
2023-01-03T00:26:59.189Z,101077.56
2023-01-03T00:29:44.845Z,101069.97
2023-01-03T00:32:30.628Z,101053.69
2023-01-03T00:35:16.055Z,101039.91
2023-01-03T00:38:01.396Z,101033.84
2023-01-03T00:40:46.751Z,101021.09
2023-01-03T00:43:32.494Z,101026.44
2023-01-03T00:46:20.767Z,101032.75
2023-01-03T00:49:06.760Z,101024.25
2023-01-03T00:51:53.934Z,101031.34
2023-01-03T00:54:39.556Z,101015.19
2023-01-03T00:57:24.752Z,101009.22
2023-01-03T01:00:11.080Z,100999.72
2023-01-03T01:02:56.776Z,100994.63
2023-01-03T01:05:42.817Z,100979.88
2023-01-03T01:08:28.289Z,100983.50
2023-01-03T01:11:14.814Z,100982.97
2023-01-03T01:14:00.089Z,100977.38
2023-01-03T01:16:52.426Z,100980.16
2023-01-03T01:19:41.848Z,100957.03
2023-01-03T01:22:27.565Z,100952.97
2023-01-03T01:25:12.757Z,100948.81
2023-01-03T01:27:58.134Z,100947.91
2023-01-03T01:30:43.496Z,100941.06
2023-01-03T01:33:29.454Z,100935.19
2023-01-03T01:36:19.975Z,100922.22
2023-01-03T01:39:08.534Z,100925.69
2023-01-03T01:42:19.457Z,100929.38
2023-01-03T01:45:14.159Z,100907.22
2023-01-03T01:48:06.080Z,100893.56
2023-01-03T01:50:53.023Z,100886.06
2023-01-03T01:53:41.683Z,100883.56
2023-01-03T01:56:35.593Z,100868.03
2023-01-03T01:59:20.852Z,100860.25
2023-01-03T02:02:06.841Z,100863.88
2023-01-03T02:04:55.211Z,100857.91
2023-01-03T02:07:40.856Z,100856.28
2023-01-03T02:10:44.937Z,100844.25
2023-01-03T02:13:53.783Z,100856.44
2023-01-03T02:16:57.669Z,100834.03
2023-01-03T02:19:49.283Z,100829.75
2023-01-03T02:22:37.669Z,100821.16
2023-01-03T02:25:56.472Z,100803.00
2023-01-03T02:28:48.245Z,100808.19
2023-01-03T02:31:36.545Z,100794.34
2023-01-03T02:34:46.936Z,100790.88
2023-01-03T02:37:48.062Z,100800.41
2023-01-03T02:40:39.585Z,100791.84
2023-01-03T02:44:05.175Z,100782.31
2023-01-03T02:47:20.204Z,100768.50
2023-01-03T02:50:10.079Z,100759.91
2023-01-03T02:53:01.730Z,100742.63
2023-01-03T02:55:52.183Z,100728.78
2023-01-03T02:58:40.232Z,100726.16
2023-01-03T03:01:28.167Z,100718.31
2023-01-03T03:04:14.819Z,100706.22
2023-01-03T03:07:27.965Z,100702.72
2023-01-03T03:10:32.120Z,100693.22
2023-01-03T03:13:39.799Z,100682.91
2023-01-03T03:16:49.829Z,100677.72
2023-01-03T03:19:55.647Z,100672.56
2023-01-03T03:23:03.037Z,100645.78
2023-01-03T03:25:53.184Z,100648.38
2023-01-03T03:28:43.557Z,100631.94
2023-01-03T03:31:36.998Z,100625.91
2023-01-03T03:34:30.353Z,100625.97
2023-01-03T03:37:20.258Z,100608.66
2023-01-03T03:40:25.690Z,100592.22
2023-01-03T03:43:50.972Z,100587.91
2023-01-03T03:46:54.786Z,100555.91
2023-01-03T03:49:45.905Z,100562.03
2023-01-03T03:52:33.889Z,100561.19
2023-01-03T03:55:25.245Z,100555.09
2023-01-03T03:58:20.816Z,100549.94
2023-01-03T04:01:09.030Z,100537.84
2023-01-03T04:03:58.849Z,100541.34
2023-01-03T04:06:48.206Z,100537.09
2023-01-03T04:09:34.185Z,100541.47
2023-01-03T04:12:19.801Z,100537.16
2023-01-03T04:15:07.141Z,100534.59
2023-01-03T04:17:53.076Z,100537.22
2023-01-03T04:20:38.767Z,100546.72
2023-01-03T04:23:24.537Z,100532.91
2023-01-03T04:26:10.139Z,100553.69
2023-01-03T04:28:55.485Z,100548.50
2023-01-03T04:31:40.924Z,100538.94
2023-01-03T04:34:26.191Z,100544.19
2023-01-03T04:37:11.842Z,100540.69
2023-01-03T04:39:57.704Z,100549.38
2023-01-03T04:43:01.627Z,100538.28
2023-01-03T04:45:50.671Z,100544.47
2023-01-03T04:48:36.024Z,100551.47
2023-01-03T04:51:21.628Z,100556.69
2023-01-03T04:54:07.163Z,100536.81
2023-01-03T04:56:52.696Z,100531.63
2023-01-03T04:59:38.068Z,100529.94
2023-01-03T05:02:23.398Z,100533.41
2023-01-03T05:05:09.464Z,100524.78
2023-01-03T05:07:54.959Z,100528.22
2023-01-03T05:10:41.519Z,100535.16
2023-01-03T05:13:27.162Z,100545.56
2023-01-03T05:16:14.851Z,100541.28
2023-01-03T05:19:00.402Z,100542.97
2023-01-03T05:22:04.213Z,100543.81
2023-01-03T05:25:18.955Z,100555.94
2023-01-03T05:28:05.134Z,100560.25
2023-01-03T05:30:50.496Z,100555.03
2023-01-03T05:33:39.214Z,100566.34
2023-01-03T05:36:24.741Z,100567.22
2023-01-03T05:39:10.219Z,100568.13
2023-01-03T05:42:02.004Z,100561.19
2023-01-03T05:44:48.967Z,100557.72
2023-01-03T05:47:34.829Z,100553.38
2023-01-03T05:50:20.192Z,100556.81
2023-01-03T05:53:05.457Z,100559.41
2023-01-03T05:55:50.883Z,100562.84
2023-01-03T05:58:36.249Z,100568.94
2023-01-03T06:01:21.714Z,100560.25
2023-01-03T06:04:07.343Z,100568.03
2023-01-03T06:06:52.928Z,100563.75
2023-01-03T06:09:38.229Z,100576.75
2023-01-03T06:12:25.816Z,100580.19
2023-01-03T06:15:12.121Z,100580.19
2023-01-03T06:18:02.651Z,100581.88
2023-01-03T06:20:48.386Z,100585.31
2023-01-03T06:23:33.712Z,100600.91
2023-01-03T06:26:21.160Z,100600.06
2023-01-03T06:29:06.871Z,100604.41
2023-01-03T06:31:52.453Z,100597.47
2023-01-03T06:34:38.394Z,100600.94
2023-01-03T06:37:24.003Z,100602.66
2023-01-03T06:40:10.271Z,100600.91
2023-01-03T06:42:55.734Z,100606.97
2023-01-03T06:46:03.168Z,100613.88
2023-01-03T06:49:07.105Z,100612.97
2023-01-03T06:52:11.158Z,100610.34
2023-01-03T06:54:56.486Z,100605.97
2023-01-03T06:57:41.866Z,100607.66
2023-01-03T07:00:27.239Z,100616.31
2023-01-03T07:03:12.504Z,100619.81
2023-01-03T07:05:58.035Z,100622.44
2023-01-03T07:08:48.136Z,100623.31
2023-01-03T07:11:34.455Z,100627.69
2023-01-03T07:14:20.150Z,100618.13
2023-01-03T07:17:05.747Z,100625.97
2023-01-03T07:19:50.972Z,100619.88
2023-01-03T07:22:36.338Z,100616.44
2023-01-03T07:25:21.733Z,100621.66
2023-01-03T07:28:10.795Z,100602.63
2023-01-03T07:31:05.494Z,100611.28
2023-01-03T07:33:53.313Z,100609.59
2023-01-03T07:36:38.825Z,100606.16
2023-01-03T07:39:24.116Z,100605.25
2023-01-03T07:42:28.686Z,100596.59
2023-01-03T07:45:14.254Z,100588.72
2023-01-03T07:47:59.683Z,100587.88
2023-01-03T07:50:45.120Z,100581.81
2023-01-03T07:53:30.939Z,100580.94
2023-01-03T07:56:20.050Z,100582.66
2023-01-03T07:59:06.783Z,100578.31
2023-01-03T08:01:52.423Z,100584.41
2023-01-03T08:04:38.012Z,100580.91
2023-01-03T08:07:23.424Z,100580.94
2023-01-03T08:10:27.737Z,100565.31
2023-01-03T08:13:19.487Z,100561.84
2023-01-03T08:16:05.967Z,100560.94
2023-01-03T08:18:52.249Z,100560.94
2023-01-03T08:21:37.841Z,100566.13
2023-01-03T08:24:23.371Z,100560.91
2023-01-03T08:27:08.741Z,100563.56
2023-01-03T08:29:54.151Z,100553.19
2023-01-03T08:32:39.794Z,100554.94
2023-01-03T08:35:28.693Z,100546.31
2023-01-03T08:38:19.775Z,100545.47
2023-01-03T08:41:08.013Z,100542.03
2023-01-03T08:43:55.215Z,100528.19
2023-01-03T08:46:45.700Z,100518.63
2023-01-03T08:49:32.437Z,100527.25
2023-01-03T08:52:18.009Z,100520.31
2023-01-03T08:55:04.686Z,100520.34
2023-01-03T08:57:50.130Z,100525.56
2023-01-03T09:00:37.451Z,100529.03
2023-01-03T09:03:23.236Z,100523.00
2023-01-03T09:06:09.139Z,100523.84
2023-01-03T09:08:54.552Z,100514.34
2023-01-03T09:11:39.916Z,100512.59
2023-01-03T09:14:25.201Z,100512.63
2023-01-03T09:17:10.733Z,100503.97
2023-01-03T09:19:55.927Z,100507.41
2023-01-03T09:22:41.537Z,100494.41
2023-01-03T09:25:29.283Z,100497.88
2023-01-03T09:28:19.013Z,100480.56
2023-01-03T09:31:05.119Z,100481.47
2023-01-03T09:33:50.628Z,100472.78
2023-01-03T09:36:38.492Z,100466.72
2023-01-03T09:39:24.032Z,100452.88
2023-01-03T09:42:44.973Z,100442.53
2023-01-03T09:45:34.734Z,100426.94
2023-01-03T09:48:33.660Z,100430.38
2023-01-03T09:51:45.008Z,100430.38
2023-01-03T09:54:53.194Z,100430.34
2023-01-03T09:57:57.353Z,100425.16
2023-01-03T10:01:07.791Z,100421.66
2023-01-03T10:04:21.286Z,100412.13
2023-01-03T10:07:06.518Z,100412.13
2023-01-03T10:10:01.969Z,100408.66
2023-01-03T10:12:53.754Z,100392.22
2023-01-03T10:15:49.615Z,100397.41
2023-01-03T10:18:53.248Z,100391.34
2023-01-03T10:22:10.934Z,100392.22
2023-01-03T10:25:05.301Z,100395.72
2023-01-03T10:28:04.625Z,100392.22
2023-01-03T10:31:08.978Z,100390.50
2023-01-03T10:33:56.133Z,100382.72
2023-01-03T10:36:41.488Z,100381.84
2023-01-03T10:39:31.295Z,100382.69
2023-01-03T10:42:18.825Z,100371.41
2023-01-03T10:45:10.736Z,100372.25
2023-01-03T10:48:02.965Z,100363.59
2023-01-03T10:50:50.822Z,100352.28
2023-01-03T10:53:41.780Z,100341.88
2023-01-03T10:56:29.999Z,100333.19
2023-01-03T10:59:15.611Z,100322.78
2023-01-03T11:02:13.027Z,100312.41
2023-01-03T11:05:19.951Z,100309.81
2023-01-03T11:08:15.206Z,100296.78
2023-01-03T11:11:01.477Z,100292.41
2023-01-03T11:13:47.166Z,100287.19
2023-01-03T11:16:32.658Z,100287.22
2023-01-03T11:19:19.150Z,100272.44
2023-01-03T11:22:21.632Z,100280.22
2023-01-03T11:25:33.927Z,100267.22
2023-01-03T11:28:37.538Z,100262.88
2023-01-03T11:31:35.278Z,100254.19
2023-01-03T11:34:48.054Z,100238.56
2023-01-03T11:38:12.742Z,100235.97
2023-01-03T11:41:10.452Z,100218.63
2023-01-03T11:44:22.235Z,100212.56
2023-01-03T11:47:19.547Z,100206.53
2023-01-03T11:50:40.380Z,100195.22
2023-01-03T11:53:35.558Z,100190.84
2023-01-03T11:56:53.472Z,100184.69
2023-01-03T11:59:52.094Z,100189.00
2023-01-03T12:03:01.245Z,100188.06
2023-01-03T12:05:58.622Z,100167.16
2023-01-03T12:08:52.803Z,100162.69
2023-01-03T12:11:47.468Z,100159.84
2023-01-03T12:14:51.811Z,100149.31
2023-01-03T12:18:09.939Z,100135.28
2023-01-03T12:21:00.211Z,100136.91
2023-01-03T12:24:11.586Z,100117.75
2023-01-03T12:27:34.221Z,100109.88
2023-01-03T12:30:19.461Z,100107.16
2023-01-03T12:33:17.664Z,100097.56
2023-01-03T12:36:17.200Z,100100.13
2023-01-03T12:39:29.232Z,100086.22
2023-01-03T12:42:38.619Z,100063.59
2023-01-03T12:45:46.008Z,100084.44
2023-01-03T12:48:45.447Z,100078.16
2023-01-03T12:51:31.282Z,100073.53
2023-01-03T12:54:52.839Z,100063.72
2023-01-03T12:58:18.273Z,100053.25
2023-01-03T13:01:36.096Z,100035.81
2023-01-03T13:04:39.286Z,100025.16
2023-01-03T13:07:31.103Z,100034.59
2023-01-03T13:10:20.120Z,100023.97
2023-01-03T13:13:06.584Z,100021.19
2023-01-03T13:15:53.789Z,100004.53
2023-01-03T13:18:39.269Z,99995.75
2023-01-03T13:21:49.455Z,100006.97
2023-01-03T13:24:42.263Z,99992.97
2023-01-03T13:27:50.216Z,99986.78
2023-01-03T13:30:38.776Z,99989.19
2023-01-03T13:33:24.416Z,99974.34
2023-01-03T13:36:10.975Z,99973.47
2023-01-03T13:38:56.675Z,99965.63
2023-01-03T13:41:42.222Z,99963.88
2023-01-03T13:44:27.623Z,99969.94
2023-01-03T13:47:47.558Z,99975.13
2023-01-03T13:50:35.675Z,99969.94
2023-01-03T13:53:21.496Z,99982.16
2023-01-03T13:56:16.223Z,99976.19
2023-01-03T13:59:23.332Z,99972.78
2023-01-03T14:02:33.728Z,99986.00
2023-01-03T14:06:05.591Z,99980.75
2023-01-03T14:09:03.377Z,99980.75
2023-01-03T14:12:13.735Z,99982.50
2023-01-03T14:14:59.733Z,99983.28
2023-01-03T14:17:52.663Z,99988.53
2023-01-03T14:20:41.836Z,99975.44
2023-01-03T14:26:34.232Z,99958.84
2023-01-03T14:29:24.473Z,99964.03
2023-01-03T14:32:34.023Z,99969.22
2023-01-03T14:35:41.116Z,99976.13
2023-01-03T14:38:29.559Z,99978.66
2023-01-03T14:41:28.570Z,99967.31
2023-01-03T14:44:13.932Z,99962.91
2023-01-03T14:47:04.346Z,99962.88
2023-01-03T14:49:52.964Z,99952.38
2023-01-03T14:52:41.486Z,99946.31
2023-01-03T14:55:30.597Z,99941.94
2023-01-03T14:58:30.996Z,99950.66
2023-01-03T15:01:16.575Z,99951.50
2023-01-03T15:04:02.478Z,99948.00
2023-01-03T15:07:05.139Z,99937.56
2023-01-03T15:10:07.478Z,99938.44
2023-01-03T15:13:00.673Z,99938.44
2023-01-03T15:16:00.665Z,99943.63
2023-01-03T15:18:47.264Z,99945.31
2023-01-03T15:21:32.754Z,99940.94
2023-01-03T15:24:21.741Z,99937.47
2023-01-03T15:27:38.304Z,99937.50
2023-01-03T15:30:26.680Z,99935.00
2023-01-03T15:33:22.962Z,99940.28
2023-01-03T15:36:18.819Z,99947.25
2023-01-03T15:39:14.662Z,99951.66
2023-01-03T15:42:43.333Z,99952.53
2023-01-03T15:45:35.244Z,99953.41
2023-01-03T15:48:22.289Z,99942.06
2023-01-03T15:51:07.803Z,99950.75
2023-01-03T15:53:53.577Z,99940.25
2023-01-03T15:56:55.157Z,99957.69
2023-01-03T15:59:43.727Z,99944.66
2023-01-03T16:02:31.058Z,99947.28
2023-01-03T16:05:22.009Z,99958.59
2023-01-03T16:08:27.194Z,99959.44
2023-01-03T16:11:20.728Z,99952.47
2023-01-03T16:14:21.317Z,99961.19
2023-01-03T16:17:10.261Z,99977.69
2023-01-03T16:19:57.476Z,99975.06
2023-01-03T16:22:57.692Z,99963.72
2023-01-03T16:25:46.296Z,99956.75
2023-01-03T16:28:31.959Z,99958.41
2023-01-03T16:31:33.749Z,99960.88
2023-01-03T16:34:21.701Z,99954.72
2023-01-03T16:37:10.046Z,99956.44
2023-01-03T16:39:56.017Z,99957.22
2023-01-03T16:42:41.468Z,99948.53
2023-01-03T16:45:26.847Z,99965.06
2023-01-03T16:48:17.353Z,99976.47
2023-01-03T16:51:03.054Z,99974.72
2023-01-03T16:53:48.681Z,99967.63
2023-01-03T16:56:34.462Z,99972.78
2023-01-03T16:59:22.996Z,99969.22
2023-01-03T17:02:08.757Z,99968.34
2023-01-03T17:04:54.365Z,99955.31
2023-01-03T17:07:41.739Z,99965.81
2023-01-03T17:10:35.496Z,99971.06
2023-01-03T17:13:37.315Z,99972.81
2023-01-03T17:16:24.291Z,99967.66
2023-01-03T17:22:32.273Z,99973.22
2023-01-03T17:25:17.666Z,99978.53
2023-01-03T17:28:03.012Z,99978.53
2023-01-03T17:30:50.942Z,99992.56
2023-01-03T17:33:36.172Z,99969.91
2023-01-03T17:36:27.682Z,99970.00
2023-01-03T17:39:13.055Z,99966.56
2023-01-03T17:42:15.241Z,99955.38
2023-01-03T17:45:19.185Z,99972.03
2023-01-03T17:48:24.023Z,99972.22
2023-01-03T17:51:10.765Z,99970.53
2023-01-03T17:53:56.352Z,99953.19
2023-01-03T17:56:42.765Z,99952.38
2023-01-03T17:59:28.928Z,99948.97
2023-01-03T18:02:23.533Z,99947.19
2023-01-03T18:05:18.828Z,99967.25
2023-01-03T18:08:17.113Z,99976.75
2023-01-03T18:11:03.010Z,99982.84
2023-01-03T18:13:49.983Z,99963.66
2023-01-03T18:16:35.701Z,99954.03
2023-01-03T18:19:21.002Z,99953.97
2023-01-03T18:22:06.248Z,99959.16
2023-01-03T18:24:53.321Z,99957.41
2023-01-03T18:27:38.780Z,99973.97
2023-01-03T18:30:24.184Z,99973.94
2023-01-03T18:33:10.201Z,99969.50
2023-01-03T18:35:55.691Z,99965.03
2023-01-03T18:38:41.537Z,99966.81
2023-01-03T18:41:29.188Z,99972.06
2023-01-03T18:44:25.091Z,99964.25
2023-01-03T18:47:15.021Z,99971.25
2023-01-03T18:50:00.345Z,99973.94
2023-01-03T18:52:47.912Z,99962.59
2023-01-03T18:55:35.557Z,99966.84
2023-01-03T18:58:34.061Z,99963.34
2023-01-03T19:01:19.752Z,99957.34
2023-01-03T19:04:05.417Z,99950.38
2023-01-03T19:06:52.171Z,99950.41
2023-01-03T19:09:37.605Z,99948.72
2023-01-03T19:12:23.402Z,99948.81
2023-01-03T19:15:20.350Z,99953.16
2023-01-03T19:18:05.984Z,99954.84
2023-01-03T19:20:51.726Z,99943.56
2023-01-03T19:23:37.412Z,99944.38
2023-01-03T19:26:31.142Z,99947.81
2023-01-03T19:29:25.265Z,99947.81
2023-01-03T19:32:30.224Z,99934.69
2023-01-03T19:35:16.363Z,99943.41
2023-01-03T19:38:01.978Z,99935.50
2023-01-03T19:40:47.664Z,99938.81
2023-01-03T19:43:34.191Z,99940.41
2023-01-03T19:46:19.936Z,99916.69
2023-01-03T19:49:10.903Z,99908.75
2023-01-03T19:51:57.236Z,99884.16
2023-01-03T19:54:43.118Z,99892.78
2023-01-03T19:57:33.503Z,99886.72
2023-01-03T20:00:22.506Z,99881.47
2023-01-03T20:03:21.990Z,99877.19
2023-01-03T20:06:11.842Z,99860.72
2023-01-03T20:08:57.577Z,99838.06
2023-01-03T20:11:48.298Z,99857.28
2023-01-03T20:14:33.892Z,99844.31
2023-01-03T20:17:25.303Z,99860.00
2023-01-03T20:20:13.513Z,99845.19
2023-01-03T20:23:05.593Z,99853.94
2023-01-03T20:25:51.929Z,99834.72
2023-01-03T20:28:37.206Z,99837.34
2023-01-03T20:31:23.758Z,99806.69
2023-01-03T20:34:10.012Z,99820.41
2023-01-03T20:36:56.600Z,99830.94
2023-01-03T20:39:44.316Z,99793.41
2023-01-03T20:42:29.731Z,99825.59
2023-01-03T20:45:16.472Z,99824.78
2023-01-03T20:48:01.925Z,99842.25
2023-01-03T20:50:47.363Z,99829.09
2023-01-03T20:53:33.051Z,99842.13
2023-01-03T20:56:18.348Z,99822.97
2023-01-03T20:59:04.917Z,99822.94
2023-01-03T21:01:50.562Z,99817.59
2023-01-03T21:04:37.255Z,99835.13
2023-01-03T21:07:49.238Z,99829.97
2023-01-03T21:10:43.534Z,99833.59
2023-01-03T21:13:29.336Z,99836.22
2023-01-03T21:16:17.726Z,99841.44
2023-01-03T21:19:15.978Z,99851.72
2023-01-03T21:22:01.513Z,99848.19
2023-01-03T21:24:49.710Z,99848.13
2023-01-03T21:27:38.003Z,99847.09
2023-01-03T21:30:23.867Z,99825.25
2023-01-03T21:33:19.321Z,99862.72
2023-01-03T21:36:05.327Z,99844.44
2023-01-03T21:38:51.667Z,99858.44
2023-01-03T21:41:57.486Z,99879.56
2023-01-03T21:44:43.075Z,99894.50
2023-01-03T21:47:28.555Z,99911.22
2023-01-03T21:50:14.716Z,99906.97
2023-01-03T21:53:00.227Z,99903.59
2023-01-03T21:55:46.866Z,99915.06
2023-01-03T21:58:32.434Z,99931.63
2023-01-03T22:01:23.650Z,99936.09
2023-01-03T22:04:18.279Z,99944.88
2023-01-03T22:07:03.718Z,99952.78
2023-01-03T22:10:07.673Z,99955.56
2023-01-03T22:12:57.071Z,99960.84
2023-01-03T22:15:42.415Z,99968.88
2023-01-03T22:18:28.883Z,99986.41
2023-01-03T22:21:14.645Z,99967.31
2023-01-03T22:23:59.921Z,99978.63
2023-01-03T22:26:45.355Z,99980.34
2023-01-03T22:29:30.739Z,99991.63
2023-01-03T22:32:16.162Z,99992.44
2023-01-03T22:35:01.551Z,99963.59
2023-01-03T22:37:46.860Z,99994.97
2023-01-03T22:40:32.231Z,100000.25
2023-01-03T22:43:17.543Z,99990.81
2023-01-03T22:46:08.137Z,100003.09
2023-01-03T22:48:54.977Z,100015.38
2023-01-03T22:51:40.298Z,100014.50
2023-01-03T22:54:25.857Z,100022.41
2023-01-03T22:57:12.151Z,100028.59
2023-01-03T22:59:57.605Z,100026.09
2023-01-03T23:02:43.611Z,100038.28
2023-01-03T23:05:29.118Z,100045.28
2023-01-03T23:08:14.640Z,100034.72
2023-01-03T23:11:34.201Z,100026.81
2023-01-03T23:14:23.324Z,100017.06
2023-01-03T23:17:27.415Z,99982.00
2023-01-03T23:20:12.867Z,99964.56
2023-01-03T23:23:05.782Z,99976.03
2023-01-03T23:25:51.463Z,99953.50
2023-01-03T23:28:36.824Z,99969.19
2023-01-03T23:31:22.271Z,99959.72
2023-01-03T23:34:08.576Z,99969.38
2023-01-03T23:36:53.878Z,99964.91
2023-01-03T23:39:39.444Z,99982.25
2023-01-03T23:42:24.779Z,99967.50
2023-01-03T23:45:10.351Z,99984.06
2023-01-03T23:47:55.938Z,99980.63
2023-01-03T23:50:41.516Z,99994.50
2023-01-03T23:53:27.233Z,99989.34
2023-01-03T23:56:15.890Z,99992.94
2023-01-03T23:59:01.541Z,99992.94
